sensor_id;sensor_type;location;lat;lon;timestamp;P1;durP1;ratioP1;P2;durP2;ratioP2
39188;SDS011;24915;50.858;4.376;2023-07-13T00:00:05;10.32;;;2.45;;
39188;SDS011;24915;50.858;4.376;2023-07-13T00:02:35;10.68;;;2.30;;
39188;SDS011;24915;50.858;4.376;2023-07-13T00:05:00;8.80;;;2.72;;
39188;SDS011;24915;50.858;4.376;2023-07-13T00:07:26;11.77;;;3.40;;
39188;SDS011;24915;50.858;4.376;2023-07-13T00:09:52;18.80;;;2.92;;
39188;SDS011;24915;50.858;4.376;2023-07-13T00:12:25;8.38;;;2.35;;
39188;SDS011;24915;50.858;4.376;2023-07-13T00:14:57;12.70;;;2.65;;
39188;SDS011;24915;50.858;4.376;2023-07-13T00:17:24;10.02;;;2.30;;
39188;SDS011;24915;50.858;4.376;2023-07-13T00:19:50;9.30;;;2.63;;
39188;SDS011;24915;50.858;4.376;2023-07-13T00:22:17;10.95;;;3.15;;
39188;SDS011;24915;50.858;4.376;2023-07-13T00:24:43;12.70;;;2.58;;
39188;SDS011;24915;50.858;4.376;2023-07-13T00:27:10;17.08;;;3.20;;
39188;SDS011;24915;50.858;4.376;2023-07-13T00:29:36;14.18;;;3.13;;
39188;SDS011;24915;50.858;4.376;2023-07-13T00:32:03;15.23;;;3.03;;
39188;SDS011;24915;50.858;4.376;2023-07-13T00:34:30;14.50;;;2.45;;
39188;SDS011;24915;50.858;4.376;2023-07-13T00:36:56;12.32;;;2.88;;
39188;SDS011;24915;50.858;4.376;2023-07-13T00:39:21;10.77;;;2.88;;
39188;SDS011;24915;50.858;4.376;2023-07-13T00:41:48;15.60;;;2.83;;
39188;SDS011;24915;50.858;4.376;2023-07-13T00:44:14;14.07;;;2.90;;
39188;SDS011;24915;50.858;4.376;2023-07-13T00:46:40;9.90;;;3.33;;
39188;SDS011;24915;50.858;4.376;2023-07-13T00:49:07;11.00;;;2.75;;
39188;SDS011;24915;50.858;4.376;2023-07-13T00:51:37;13.63;;;2.90;;
39188;SDS011;24915;50.858;4.376;2023-07-13T00:54:09;10.15;;;2.88;;
39188;SDS011;24915;50.858;4.376;2023-07-13T00:56:39;8.13;;;2.47;;
39188;SDS011;24915;50.858;4.376;2023-07-13T00:59:06;11.82;;;3.13;;
39188;SDS011;24915;50.858;4.376;2023-07-13T01:01:33;13.60;;;3.10;;
39188;SDS011;24915;50.858;4.376;2023-07-13T01:03:59;13.73;;;3.08;;
39188;SDS011;24915;50.858;4.376;2023-07-13T01:06:24;9.18;;;2.90;;
39188;SDS011;24915;50.858;4.376;2023-07-13T01:08:50;12.80;;;2.72;;
39188;SDS011;24915;50.858;4.376;2023-07-13T01:11:20;15.85;;;3.15;;
39188;SDS011;24915;50.858;4.376;2023-07-13T01:13:47;12.57;;;2.63;;
39188;SDS011;24915;50.858;4.376;2023-07-13T01:16:17;11.18;;;3.33;;
39188;SDS011;24915;50.858;4.376;2023-07-13T01:18:49;13.27;;;2.47;;
39188;SDS011;24915;50.858;4.376;2023-07-13T01:21:15;10.88;;;2.75;;
39188;SDS011;24915;50.858;4.376;2023-07-13T01:23:41;13.18;;;3.78;;
39188;SDS011;24915;50.858;4.376;2023-07-13T01:26:07;11.90;;;2.97;;
39188;SDS011;24915;50.858;4.376;2023-07-13T01:28:33;12.98;;;2.58;;
39188;SDS011;24915;50.858;4.376;2023-07-13T01:31:02;21.48;;;3.17;;
39188;SDS011;24915;50.858;4.376;2023-07-13T01:33:28;14.07;;;2.58;;
39188;SDS011;24915;50.858;4.376;2023-07-13T01:35:55;14.23;;;2.60;;
39188;SDS011;24915;50.858;4.376;2023-07-13T01:38:22;19.02;;;3.75;;
39188;SDS011;24915;50.858;4.376;2023-07-13T01:40:50;13.63;;;3.15;;
39188;SDS011;24915;50.858;4.376;2023-07-13T01:43:16;17.02;;;3.30;;
39188;SDS011;24915;50.858;4.376;2023-07-13T01:45:43;17.10;;;2.53;;
39188;SDS011;24915;50.858;4.376;2023-07-13T01:48:09;12.60;;;3.00;;
39188;SDS011;24915;50.858;4.376;2023-07-13T01:50:35;11.88;;;3.10;;
39188;SDS011;24915;50.858;4.376;2023-07-13T01:53:01;15.68;;;2.97;;
39188;SDS011;24915;50.858;4.376;2023-07-13T01:55:28;10.25;;;3.13;;
39188;SDS011;24915;50.858;4.376;2023-07-13T01:57:54;13.80;;;2.88;;
39188;SDS011;24915;50.858;4.376;2023-07-13T02:00:20;14.07;;;3.30;;
39188;SDS011;24915;50.858;4.376;2023-07-13T02:02:45;16.20;;;3.53;;
39188;SDS011;24915;50.858;4.376;2023-07-13T02:05:11;16.00;;;3.40;;
39188;SDS011;24915;50.858;4.376;2023-07-13T02:07:38;10.20;;;2.78;;
39188;SDS011;24915;50.858;4.376;2023-07-13T02:10:04;16.35;;;3.72;;
39188;SDS011;24915;50.858;4.376;2023-07-13T02:12:31;10.32;;;3.00;;
39188;SDS011;24915;50.858;4.376;2023-07-13T02:14:57;14.20;;;3.30;;
39188;SDS011;24915;50.858;4.376;2023-07-13T02:17:25;16.58;;;3.00;;
39188;SDS011;24915;50.858;4.376;2023-07-13T02:19:52;13.82;;;3.00;;
39188;SDS011;24915;50.858;4.376;2023-07-13T02:22:17;16.42;;;3.38;;
39188;SDS011;24915;50.858;4.376;2023-07-13T02:24:43;15.73;;;3.53;;
39188;SDS011;24915;50.858;4.376;2023-07-13T02:27:09;18.33;;;3.47;;
39188;SDS011;24915;50.858;4.376;2023-07-13T02:29:35;12.50;;;3.20;;
39188;SDS011;24915;50.858;4.376;2023-07-13T02:32:00;18.80;;;3.60;;
39188;SDS011;24915;50.858;4.376;2023-07-13T02:34:26;15.55;;;3.72;;
39188;SDS011;24915;50.858;4.376;2023-07-13T02:36:52;17.15;;;4.32;;
39188;SDS011;24915;50.858;4.376;2023-07-13T02:39:17;16.33;;;3.78;;
39188;SDS011;24915;50.858;4.376;2023-07-13T02:41:43;20.40;;;4.20;;
39188;SDS011;24915;50.858;4.376;2023-07-13T02:44:09;18.88;;;3.50;;
39188;SDS011;24915;50.858;4.376;2023-07-13T02:46:35;14.50;;;3.45;;
39188;SDS011;24915;50.858;4.376;2023-07-13T02:49:02;18.92;;;4.28;;
39188;SDS011;24915;50.858;4.376;2023-07-13T02:51:29;13.77;;;3.25;;
39188;SDS011;24915;50.858;4.376;2023-07-13T02:53:54;15.93;;;3.70;;
39188;SDS011;24915;50.858;4.376;2023-07-13T02:56:24;16.25;;;3.40;;
39188;SDS011;24915;50.858;4.376;2023-07-13T02:58:51;11.57;;;3.22;;
39188;SDS011;24915;50.858;4.376;2023-07-13T03:01:17;17.95;;;3.65;;
39188;SDS011;24915;50.858;4.376;2023-07-13T03:03:47;16.83;;;3.25;;
39188;SDS011;24915;50.858;4.376;2023-07-13T03:06:13;11.65;;;3.53;;
39188;SDS011;24915;50.858;4.376;2023-07-13T03:08:39;16.52;;;3.45;;
39188;SDS011;24915;50.858;4.376;2023-07-13T03:11:07;12.55;;;3.67;;
39188;SDS011;24915;50.858;4.376;2023-07-13T03:13:34;12.57;;;3.60;;
39188;SDS011;24915;50.858;4.376;2023-07-13T03:16:00;18.55;;;3.58;;
39188;SDS011;24915;50.858;4.376;2023-07-13T03:18:26;16.77;;;3.92;;
39188;SDS011;24915;50.858;4.376;2023-07-13T03:20:52;16.95;;;3.47;;
39188;SDS011;24915;50.858;4.376;2023-07-13T03:23:19;12.23;;;3.33;;
39188;SDS011;24915;50.858;4.376;2023-07-13T03:25:45;15.00;;;3.88;;
39188;SDS011;24915;50.858;4.376;2023-07-13T03:28:11;19.35;;;3.72;;
39188;SDS011;24915;50.858;4.376;2023-07-13T03:30:37;14.55;;;4.07;;
39188;SDS011;24915;50.858;4.376;2023-07-13T03:33:04;20.38;;;3.72;;
39188;SDS011;24915;50.858;4.376;2023-07-13T03:35:30;18.85;;;3.72;;
39188;SDS011;24915;50.858;4.376;2023-07-13T03:37:57;23.20;;;4.47;;
39188;SDS011;24915;50.858;4.376;2023-07-13T03:40:24;18.38;;;3.83;;
39188;SDS011;24915;50.858;4.376;2023-07-13T03:42:51;14.27;;;3.88;;
39188;SDS011;24915;50.858;4.376;2023-07-13T03:45:17;20.23;;;3.78;;
39188;SDS011;24915;50.858;4.376;2023-07-13T03:47:43;17.20;;;3.78;;
39188;SDS011;24915;50.858;4.376;2023-07-13T03:50:08;15.93;;;3.92;;
39188;SDS011;24915;50.858;4.376;2023-07-13T03:52:35;17.15;;;3.72;;
39188;SDS011;24915;50.858;4.376;2023-07-13T03:55:00;20.83;;;3.90;;
39188;SDS011;24915;50.858;4.376;2023-07-13T03:57:26;20.70;;;4.18;;
39188;SDS011;24915;50.858;4.376;2023-07-13T03:59:51;25.13;;;4.35;;
39188;SDS011;24915;50.858;4.376;2023-07-13T04:02:18;18.60;;;4.32;;
39188;SDS011;24915;50.858;4.376;2023-07-13T04:04:43;17.50;;;4.10;;
39188;SDS011;24915;50.858;4.376;2023-07-13T04:07:09;17.63;;;4.35;;
39188;SDS011;24915;50.858;4.376;2023-07-13T04:09:35;18.40;;;4.05;;
39188;SDS011;24915;50.858;4.376;2023-07-13T04:12:01;15.80;;;4.30;;
39188;SDS011;24915;50.858;4.376;2023-07-13T04:14:27;19.98;;;4.10;;
39188;SDS011;24915;50.858;4.376;2023-07-13T04:16:53;20.90;;;4.13;;
39188;SDS011;24915;50.858;4.376;2023-07-13T04:19:20;17.42;;;4.03;;
39188;SDS011;24915;50.858;4.376;2023-07-13T04:21:46;19.90;;;4.32;;
39188;SDS011;24915;50.858;4.376;2023-07-13T04:24:12;17.52;;;3.80;;
39188;SDS011;24915;50.858;4.376;2023-07-13T04:26:37;23.10;;;4.40;;
39188;SDS011;24915;50.858;4.376;2023-07-13T04:29:04;14.48;;;4.10;;
39188;SDS011;24915;50.858;4.376;2023-07-13T04:31:31;21.25;;;3.47;;
39188;SDS011;24915;50.858;4.376;2023-07-13T04:33:57;18.65;;;4.53;;
39188;SDS011;24915;50.858;4.376;2023-07-13T04:36:23;22.00;;;4.97;;
39188;SDS011;24915;50.858;4.376;2023-07-13T04:38:52;27.13;;;4.90;;
39188;SDS011;24915;50.858;4.376;2023-07-13T04:41:19;25.02;;;4.38;;
39188;SDS011;24915;50.858;4.376;2023-07-13T04:43:45;16.13;;;4.18;;
39188;SDS011;24915;50.858;4.376;2023-07-13T04:46:12;23.35;;;5.03;;
39188;SDS011;24915;50.858;4.376;2023-07-13T04:48:39;21.38;;;4.65;;
39188;SDS011;24915;50.858;4.376;2023-07-13T04:51:05;22.95;;;4.35;;
39188;SDS011;24915;50.858;4.376;2023-07-13T04:53:32;18.40;;;4.38;;
39188;SDS011;24915;50.858;4.376;2023-07-13T04:55:59;16.48;;;4.47;;
39188;SDS011;24915;50.858;4.376;2023-07-13T04:58:25;16.27;;;4.50;;
39188;SDS011;24915;50.858;4.376;2023-07-13T05:00:52;25.45;;;5.20;;
39188;SDS011;24915;50.858;4.376;2023-07-13T05:03:18;17.77;;;4.03;;
39188;SDS011;24915;50.858;4.376;2023-07-13T05:05:54;20.52;;;4.45;;
39188;SDS011;24915;50.858;4.376;2023-07-13T05:08:23;16.95;;;3.97;;
39188;SDS011;24915;50.858;4.376;2023-07-13T05:10:50;21.00;;;4.30;;
39188;SDS011;24915;50.858;4.376;2023-07-13T05:13:16;24.50;;;4.95;;
39188;SDS011;24915;50.858;4.376;2023-07-13T05:15:41;15.07;;;4.20;;
39188;SDS011;24915;50.858;4.376;2023-07-13T05:18:07;22.63;;;5.03;;
39188;SDS011;24915;50.858;4.376;2023-07-13T05:20:33;21.65;;;4.90;;
39188;SDS011;24915;50.858;4.376;2023-07-13T05:22:58;16.58;;;4.68;;
39188;SDS011;24915;50.858;4.376;2023-07-13T05:25:24;29.30;;;5.30;;
39188;SDS011;24915;50.858;4.376;2023-07-13T05:27:50;23.33;;;4.53;;
39188;SDS011;24915;50.858;4.376;2023-07-13T05:30:15;20.05;;;4.70;;
39188;SDS011;24915;50.858;4.376;2023-07-13T05:32:41;24.20;;;5.25;;
39188;SDS011;24915;50.858;4.376;2023-07-13T05:35:07;18.83;;;5.32;;
39188;SDS011;24915;50.858;4.376;2023-07-13T05:37:32;23.77;;;4.78;;
39188;SDS011;24915;50.858;4.376;2023-07-13T05:39:58;23.10;;;4.43;;
39188;SDS011;24915;50.858;4.376;2023-07-13T05:42:24;19.77;;;4.38;;
39188;SDS011;24915;50.858;4.376;2023-07-13T05:44:50;20.88;;;4.05;;
39188;SDS011;24915;50.858;4.376;2023-07-13T05:47:15;17.48;;;4.05;;
39188;SDS011;24915;50.858;4.376;2023-07-13T05:49:41;18.77;;;4.57;;
39188;SDS011;24915;50.858;4.376;2023-07-13T05:52:07;21.33;;;4.72;;
39188;SDS011;24915;50.858;4.376;2023-07-13T05:54:33;15.02;;;4.55;;
39188;SDS011;24915;50.858;4.376;2023-07-13T05:56:58;20.35;;;4.63;;
39188;SDS011;24915;50.858;4.376;2023-07-13T05:59:24;18.60;;;4.63;;
39188;SDS011;24915;50.858;4.376;2023-07-13T06:01:50;29.70;;;4.68;;
39188;SDS011;24915;50.858;4.376;2023-07-13T06:04:17;23.73;;;4.75;;
39188;SDS011;24915;50.858;4.376;2023-07-13T06:06:44;22.92;;;5.00;;
39188;SDS011;24915;50.858;4.376;2023-07-13T06:09:10;21.40;;;4.38;;
39188;SDS011;24915;50.858;4.376;2023-07-13T06:11:36;16.65;;;4.38;;
39188;SDS011;24915;50.858;4.376;2023-07-13T06:14:02;24.10;;;5.25;;
39188;SDS011;24915;50.858;4.376;2023-07-13T06:16:29;21.88;;;5.20;;
39188;SDS011;24915;50.858;4.376;2023-07-13T06:18:54;24.05;;;4.53;;
39188;SDS011;24915;50.858;4.376;2023-07-13T06:21:21;25.75;;;4.90;;
39188;SDS011;24915;50.858;4.376;2023-07-13T06:23:48;22.95;;;4.47;;
39188;SDS011;24915;50.858;4.376;2023-07-13T06:26:15;21.48;;;4.65;;
39188;SDS011;24915;50.858;4.376;2023-07-13T06:28:42;16.15;;;4.32;;
39188;SDS011;24915;50.858;4.376;2023-07-13T06:31:09;24.90;;;5.50;;
39188;SDS011;24915;50.858;4.376;2023-07-13T06:33:36;19.40;;;3.97;;
39188;SDS011;24915;50.858;4.376;2023-07-13T06:36:03;27.25;;;4.68;;
39188;SDS011;24915;50.858;4.376;2023-07-13T06:38:29;15.07;;;4.40;;
39188;SDS011;24915;50.858;4.376;2023-07-13T06:40:55;23.73;;;5.30;;
39188;SDS011;24915;50.858;4.376;2023-07-13T06:43:21;20.00;;;4.35;;
39188;SDS011;24915;50.858;4.376;2023-07-13T06:45:49;24.02;;;4.22;;
39188;SDS011;24915;50.858;4.376;2023-07-13T06:48:18;19.77;;;4.78;;
39188;SDS011;24915;50.858;4.376;2023-07-13T06:50:45;19.80;;;4.63;;
39188;SDS011;24915;50.858;4.376;2023-07-13T06:53:11;17.10;;;4.90;;
39188;SDS011;24915;50.858;4.376;2023-07-13T06:55:38;20.23;;;4.60;;
39188;SDS011;24915;50.858;4.376;2023-07-13T06:58:04;18.35;;;4.72;;
39188;SDS011;24915;50.858;4.376;2023-07-13T07:00:30;23.85;;;4.13;;
39188;SDS011;24915;50.858;4.376;2023-07-13T07:02:56;23.13;;;4.53;;
39188;SDS011;24915;50.858;4.376;2023-07-13T07:05:25;17.35;;;4.78;;
39188;SDS011;24915;50.858;4.376;2023-07-13T07:07:58;17.42;;;4.63;;
39188;SDS011;24915;50.858;4.376;2023-07-13T07:10:24;21.42;;;4.60;;
39188;SDS011;24915;50.858;4.376;2023-07-13T07:12:50;22.60;;;4.38;;
39188;SDS011;24915;50.858;4.376;2023-07-13T07:15:15;19.02;;;4.55;;
39188;SDS011;24915;50.858;4.376;2023-07-13T07:17:41;15.40;;;4.55;;
39188;SDS011;24915;50.858;4.376;2023-07-13T07:20:07;21.02;;;4.80;;
39188;SDS011;24915;50.858;4.376;2023-07-13T07:22:33;18.23;;;4.20;;
39188;SDS011;24915;50.858;4.376;2023-07-13T07:24:59;19.17;;;4.40;;
39188;SDS011;24915;50.858;4.376;2023-07-13T07:27:24;20.77;;;4.30;;
39188;SDS011;24915;50.858;4.376;2023-07-13T07:29:50;18.58;;;4.70;;
39188;SDS011;24915;50.858;4.376;2023-07-13T07:32:16;20.80;;;4.75;;
39188;SDS011;24915;50.858;4.376;2023-07-13T07:34:42;18.92;;;4.18;;
39188;SDS011;24915;50.858;4.376;2023-07-13T07:37:10;12.52;;;3.97;;
39188;SDS011;24915;50.858;4.376;2023-07-13T07:39:36;13.20;;;4.18;;
39188;SDS011;24915;50.858;4.376;2023-07-13T07:42:03;11.95;;;3.83;;
39188;SDS011;24915;50.858;4.376;2023-07-13T07:44:28;22.58;;;6.25;;
39188;SDS011;24915;50.858;4.376;2023-07-13T07:46:56;18.38;;;4.70;;
39188;SDS011;24915;50.858;4.376;2023-07-13T07:49:21;17.45;;;4.10;;
39188;SDS011;24915;50.858;4.376;2023-07-13T07:51:47;14.55;;;4.28;;
39188;SDS011;24915;50.858;4.376;2023-07-13T07:54:13;16.00;;;4.10;;
39188;SDS011;24915;50.858;4.376;2023-07-13T07:56:40;13.80;;;3.78;;
39188;SDS011;24915;50.858;4.376;2023-07-13T07:59:05;25.67;;;4.35;;
39188;SDS011;24915;50.858;4.376;2023-07-13T08:01:31;15.38;;;3.78;;
39188;SDS011;24915;50.858;4.376;2023-07-13T08:03:57;13.38;;;3.10;;
39188;SDS011;24915;50.858;4.376;2023-07-13T08:06:23;13.77;;;3.65;;
39188;SDS011;24915;50.858;4.376;2023-07-13T08:08:49;15.20;;;3.75;;
39188;SDS011;24915;50.858;4.376;2023-07-13T08:11:15;14.32;;;3.90;;
39188;SDS011;24915;50.858;4.376;2023-07-13T08:13:41;14.55;;;3.55;;
39188;SDS011;24915;50.858;4.376;2023-07-13T08:16:08;17.20;;;3.55;;
39188;SDS011;24915;50.858;4.376;2023-07-13T08:18:34;15.88;;;3.78;;
39188;SDS011;24915;50.858;4.376;2023-07-13T08:21:03;15.43;;;3.63;;
39188;SDS011;24915;50.858;4.376;2023-07-13T08:23:30;23.08;;;6.95;;
39188;SDS011;24915;50.858;4.376;2023-07-13T08:25:55;15.77;;;4.88;;
39188;SDS011;24915;50.858;4.376;2023-07-13T08:28:22;14.70;;;4.03;;
39188;SDS011;24915;50.858;4.376;2023-07-13T08:30:48;13.20;;;3.80;;
39188;SDS011;24915;50.858;4.376;2023-07-13T08:33:20;15.63;;;3.58;;
39188;SDS011;24915;50.858;4.376;2023-07-13T08:35:49;17.35;;;3.13;;
39188;SDS011;24915;50.858;4.376;2023-07-13T08:38:15;11.50;;;3.53;;
39188;SDS011;24915;50.858;4.376;2023-07-13T08:40:43;19.60;;;3.45;;
39188;SDS011;24915;50.858;4.376;2023-07-13T08:43:13;20.40;;;4.20;;
39188;SDS011;24915;50.858;4.376;2023-07-13T08:45:52;17.40;;;3.97;;
39188;SDS011;24915;50.858;4.376;2023-07-13T08:48:30;11.07;;;3.50;;
39188;SDS011;24915;50.858;4.376;2023-07-13T08:51:02;17.20;;;3.35;;
39188;SDS011;24915;50.858;4.376;2023-07-13T08:53:39;16.80;;;3.75;;
39188;SDS011;24915;50.858;4.376;2023-07-13T08:56:15;11.00;;;3.20;;
39188;SDS011;24915;50.858;4.376;2023-07-13T08:58:45;18.27;;;3.42;;
39188;SDS011;24915;50.858;4.376;2023-07-13T09:01:23;9.45;;;3.10;;
39188;SDS011;24915;50.858;4.376;2023-07-13T09:06:38;15.75;;;3.50;;
39188;SDS011;24915;50.858;4.376;2023-07-13T09:09:20;15.27;;;3.35;;
39188;SDS011;24915;50.858;4.376;2023-07-13T09:12:07;13.43;;;3.67;;
39188;SDS011;24915;50.858;4.376;2023-07-13T09:14:51;11.25;;;3.03;;
39188;SDS011;24915;50.858;4.376;2023-07-13T09:17:31;11.02;;;2.97;;
39188;SDS011;24915;50.858;4.376;2023-07-13T09:20:13;10.48;;;3.17;;
39188;SDS011;24915;50.858;4.376;2023-07-13T09:22:49;10.93;;;3.13;;
39188;SDS011;24915;50.858;4.376;2023-07-13T09:31:10;9.63;;;3.03;;
39188;SDS011;24915;50.858;4.376;2023-07-13T09:33:41;13.23;;;3.33;;
39188;SDS011;24915;50.858;4.376;2023-07-13T09:36:16;7.18;;;2.90;;
39188;SDS011;24915;50.858;4.376;2023-07-13T09:38:45;10.90;;;3.00;;
39188;SDS011;24915;50.858;4.376;2023-07-13T09:44:17;12.57;;;3.58;;
39188;SDS011;24915;50.858;4.376;2023-07-13T09:46:54;8.20;;;2.80;;
39188;SDS011;24915;50.858;4.376;2023-07-13T09:49:24;8.32;;;2.95;;
39188;SDS011;24915;50.858;4.376;2023-07-13T09:52:14;12.40;;;2.58;;
39188;SDS011;24915;50.858;4.376;2023-07-13T09:54:43;7.88;;;2.72;;
39188;SDS011;24915;50.858;4.376;2023-07-13T09:57:18;9.90;;;2.90;;
39188;SDS011;24915;50.858;4.376;2023-07-13T09:59:51;10.82;;;3.33;;
39188;SDS011;24915;50.858;4.376;2023-07-13T10:05:04;5.35;;;2.65;;
39188;SDS011;24915;50.858;4.376;2023-07-13T10:07:35;10.20;;;2.30;;
39188;SDS011;24915;50.858;4.376;2023-07-13T10:10:12;6.13;;;2.30;;
39188;SDS011;24915;50.858;4.376;2023-07-13T10:12:42;11.55;;;2.72;;
39188;SDS011;24915;50.858;4.376;2023-07-13T10:15:13;8.13;;;2.70;;
39188;SDS011;24915;50.858;4.376;2023-07-13T10:17:45;8.30;;;2.70;;
39188;SDS011;24915;50.858;4.376;2023-07-13T10:20:12;9.38;;;2.55;;
39188;SDS011;24915;50.858;4.376;2023-07-13T10:22:42;7.47;;;2.60;;
39188;SDS011;24915;50.858;4.376;2023-07-13T10:25:19;6.50;;;2.40;;
39188;SDS011;24915;50.858;4.376;2023-07-13T10:27:50;8.10;;;2.63;;
39188;SDS011;24915;50.858;4.376;2023-07-13T10:30:27;6.82;;;2.30;;
39188;SDS011;24915;50.858;4.376;2023-07-13T10:33:01;10.65;;;3.08;;
39188;SDS011;24915;50.858;4.376;2023-07-13T10:35:28;12.60;;;3.03;;
39188;SDS011;24915;50.858;4.376;2023-07-13T10:38:00;5.88;;;2.47;;
39188;SDS011;24915;50.858;4.376;2023-07-13T10:40:36;9.93;;;2.53;;
39188;SDS011;24915;50.858;4.376;2023-07-13T10:43:06;8.63;;;2.40;;
39188;SDS011;24915;50.858;4.376;2023-07-13T10:45:39;8.45;;;2.45;;
39188;SDS011;24915;50.858;4.376;2023-07-13T10:48:05;10.93;;;3.40;;
39188;SDS011;24915;50.858;4.376;2023-07-13T10:50:37;11.23;;;3.80;;
39188;SDS011;24915;50.858;4.376;2023-07-13T10:56:01;12.32;;;3.55;;
39188;SDS011;24915;50.858;4.376;2023-07-13T11:08:55;11.23;;;2.75;;
39188;SDS011;24915;50.858;4.376;2023-07-13T11:18:47;11.40;;;2.50;;
39188;SDS011;24915;50.858;4.376;2023-07-13T11:22:00;11.13;;;2.55;;
39188;SDS011;24915;50.858;4.376;2023-07-13T11:27:34;7.43;;;2.22;;
39188;SDS011;24915;50.858;4.376;2023-07-13T11:35:44;7.03;;;2.45;;
39188;SDS011;24915;50.858;4.376;2023-07-13T11:38:38;10.10;;;2.55;;
39188;SDS011;24915;50.858;4.376;2023-07-13T11:41:26;7.63;;;2.95;;
39188;SDS011;24915;50.858;4.376;2023-07-13T11:44:08;7.03;;;3.00;;
39188;SDS011;24915;50.858;4.376;2023-07-13T11:46:43;9.43;;;2.30;;
39188;SDS011;24915;50.858;4.376;2023-07-13T11:49:20;6.80;;;2.47;;
39188;SDS011;24915;50.858;4.376;2023-07-13T11:51:47;9.10;;;2.55;;
39188;SDS011;24915;50.858;4.376;2023-07-13T11:56:51;5.25;;;2.47;;
39188;SDS011;24915;50.858;4.376;2023-07-13T11:59:18;9.95;;;2.45;;
39188;SDS011;24915;50.858;4.376;2023-07-13T12:01:48;8.50;;;2.10;;
39188;SDS011;24915;50.858;4.376;2023-07-13T12:04:28;6.78;;;2.30;;
39188;SDS011;24915;50.858;4.376;2023-07-13T12:06:58;9.05;;;2.72;;
39188;SDS011;24915;50.858;4.376;2023-07-13T12:09:30;9.52;;;2.20;;
39188;SDS011;24915;50.858;4.376;2023-07-13T12:11:56;8.32;;;2.35;;
39188;SDS011;24915;50.858;4.376;2023-07-13T12:14:25;5.93;;;2.30;;
39188;SDS011;24915;50.858;4.376;2023-07-13T12:16:51;9.90;;;2.83;;
39188;SDS011;24915;50.858;4.376;2023-07-13T12:19:21;6.03;;;2.25;;
39188;SDS011;24915;50.858;4.376;2023-07-13T12:21:50;10.02;;;2.38;;
39188;SDS011;24915;50.858;4.376;2023-07-13T12:24:22;9.40;;;2.47;;
39188;SDS011;24915;50.858;4.376;2023-07-13T12:26:52;12.05;;;2.88;;
39188;SDS011;24915;50.858;4.376;2023-07-13T12:29:19;3.45;;;1.90;;
39188;SDS011;24915;50.858;4.376;2023-07-13T12:31:46;3.50;;;1.80;;
39188;SDS011;24915;50.858;4.376;2023-07-13T12:34:20;5.22;;;1.83;;
39188;SDS011;24915;50.858;4.376;2023-07-13T12:37:01;6.95;;;2.40;;
39188;SDS011;24915;50.858;4.376;2023-07-13T12:42:21;8.90;;;4.00;;
39188;SDS011;24915;50.858;4.376;2023-07-13T12:44:56;5.57;;;3.00;;
39188;SDS011;24915;50.858;4.376;2023-07-13T12:47:26;8.32;;;3.67;;
39188;SDS011;24915;50.858;4.376;2023-07-13T12:49:54;11.15;;;4.63;;
39188;SDS011;24915;50.858;4.376;2023-07-13T12:52:29;7.43;;;3.85;;
39188;SDS011;24915;50.858;4.376;2023-07-13T12:55:06;7.65;;;3.45;;
39188;SDS011;24915;50.858;4.376;2023-07-13T12:57:57;7.50;;;3.20;;
39188;SDS011;24915;50.858;4.376;2023-07-13T13:00:32;4.93;;;3.33;;
39188;SDS011;24915;50.858;4.376;2023-07-13T13:03:06;6.75;;;2.60;;
39188;SDS011;24915;50.858;4.376;2023-07-13T13:05:43;8.18;;;2.92;;
39188;SDS011;24915;50.858;4.376;2023-07-13T13:08:15;6.18;;;2.45;;
39188;SDS011;24915;50.858;4.376;2023-07-13T13:10:41;6.93;;;2.92;;
39188;SDS011;24915;50.858;4.376;2023-07-13T13:13:06;6.10;;;2.85;;
39188;SDS011;24915;50.858;4.376;2023-07-13T13:15:33;3.65;;;2.88;;
39188;SDS011;24915;50.858;4.376;2023-07-13T13:17:59;6.22;;;3.13;;
39188;SDS011;24915;50.858;4.376;2023-07-13T13:20:25;6.78;;;3.05;;
39188;SDS011;24915;50.858;4.376;2023-07-13T13:22:51;6.97;;;4.43;;
39188;SDS011;24915;50.858;4.376;2023-07-13T13:25:17;6.43;;;3.97;;
39188;SDS011;24915;50.858;4.376;2023-07-13T13:27:43;6.85;;;3.00;;
39188;SDS011;24915;50.858;4.376;2023-07-13T13:30:14;5.75;;;2.45;;
39188;SDS011;24915;50.858;4.376;2023-07-13T13:32:45;8.35;;;2.90;;
39188;SDS011;24915;50.858;4.376;2023-07-13T13:35:13;4.10;;;2.30;;
39188;SDS011;24915;50.858;4.376;2023-07-13T13:37:40;8.55;;;3.03;;
39188;SDS011;24915;50.858;4.376;2023-07-13T13:40:16;9.13;;;3.60;;
39188;SDS011;24915;50.858;4.376;2023-07-13T13:42:48;7.05;;;3.15;;
39188;SDS011;24915;50.858;4.376;2023-07-13T13:45:14;8.98;;;3.00;;
39188;SDS011;24915;50.858;4.376;2023-07-13T13:47:43;6.93;;;2.40;;
39188;SDS011;24915;50.858;4.376;2023-07-13T13:50:11;6.45;;;2.38;;
39188;SDS011;24915;50.858;4.376;2023-07-13T13:52:45;5.90;;;2.40;;
39188;SDS011;24915;50.858;4.376;2023-07-13T13:55:20;6.68;;;2.58;;
39188;SDS011;24915;50.858;4.376;2023-07-13T13:57:49;4.50;;;2.15;;
39188;SDS011;24915;50.858;4.376;2023-07-13T14:00:15;6.95;;;2.25;;
39188;SDS011;24915;50.858;4.376;2023-07-13T14:02:44;6.13;;;3.00;;
39188;SDS011;24915;50.858;4.376;2023-07-13T14:05:13;6.45;;;2.42;;
39188;SDS011;24915;50.858;4.376;2023-07-13T14:07:39;10.27;;;2.70;;
39188;SDS011;24915;50.858;4.376;2023-07-13T14:10:10;7.07;;;3.10;;
39188;SDS011;24915;50.858;4.376;2023-07-13T14:12:40;5.20;;;2.60;;
39188;SDS011;24915;50.858;4.376;2023-07-13T14:15:17;6.43;;;1.88;;
39188;SDS011;24915;50.858;4.376;2023-07-13T14:17:46;5.53;;;2.30;;
39188;SDS011;24915;50.858;4.376;2023-07-13T14:20:14;6.35;;;2.17;;
39188;SDS011;24915;50.858;4.376;2023-07-13T14:22:41;8.05;;;2.40;;
39188;SDS011;24915;50.858;4.376;2023-07-13T14:25:11;9.50;;;2.00;;
39188;SDS011;24915;50.858;4.376;2023-07-13T14:27:37;6.70;;;3.60;;
39188;SDS011;24915;50.858;4.376;2023-07-13T14:30:08;7.03;;;2.28;;
39188;SDS011;24915;50.858;4.376;2023-07-13T14:32:41;5.97;;;2.10;;
39188;SDS011;24915;50.858;4.376;2023-07-13T14:35:10;3.47;;;2.10;;
39188;SDS011;24915;50.858;4.376;2023-07-13T14:37:40;5.60;;;2.38;;
39188;SDS011;24915;50.858;4.376;2023-07-13T14:42:44;5.22;;;3.00;;
39188;SDS011;24915;50.858;4.376;2023-07-13T14:45:16;7.63;;;3.28;;
39188;SDS011;24915;50.858;4.376;2023-07-13T14:47:44;5.57;;;2.50;;
39188;SDS011;24915;50.858;4.376;2023-07-13T14:50:22;7.30;;;2.28;;
39188;SDS011;24915;50.858;4.376;2023-07-13T14:52:53;3.58;;;2.30;;
39188;SDS011;24915;50.858;4.376;2023-07-13T14:55:19;6.00;;;2.20;;
39188;SDS011;24915;50.858;4.376;2023-07-13T14:57:46;3.15;;;1.90;;
39188;SDS011;24915;50.858;4.376;2023-07-13T15:00:17;4.93;;;2.28;;
39188;SDS011;24915;50.858;4.376;2023-07-13T15:02:47;3.40;;;1.80;;
39188;SDS011;24915;50.858;4.376;2023-07-13T15:05:19;5.25;;;2.15;;
39188;SDS011;24915;50.858;4.376;2023-07-13T15:07:49;3.28;;;2.03;;
39188;SDS011;24915;50.858;4.376;2023-07-13T15:10:20;3.90;;;2.00;;
39188;SDS011;24915;50.858;4.376;2023-07-13T15:12:47;4.32;;;1.88;;
39188;SDS011;24915;50.858;4.376;2023-07-13T15:15:13;9.25;;;2.55;;
39188;SDS011;24915;50.858;4.376;2023-07-13T15:17:45;6.10;;;4.40;;
39188;SDS011;24915;50.858;4.376;2023-07-13T15:22:45;3.40;;;1.77;;
39188;SDS011;24915;50.858;4.376;2023-07-13T15:25:14;5.70;;;2.13;;
39188;SDS011;24915;50.858;4.376;2023-07-13T15:27:42;4.75;;;1.90;;
39188;SDS011;24915;50.858;4.376;2023-07-13T15:30:08;3.15;;;1.90;;
39188;SDS011;24915;50.858;4.376;2023-07-13T15:32:34;6.75;;;1.92;;
39188;SDS011;24915;50.858;4.376;2023-07-13T15:34:59;3.58;;;1.80;;
39188;SDS011;24915;50.858;4.376;2023-07-13T15:37:25;3.95;;;2.20;;
39188;SDS011;24915;50.858;4.376;2023-07-13T15:39:51;5.63;;;2.22;;